sensor_id;sensor_type;location;lat;lon;timestamp;pressure;altitude;pressure_sealevel;temperature;humidity
68197;BME280;55019;49.382;11.358;2022-12-07T00:01:07;96518.78;;;0.98;100.00
68197;BME280;55019;49.382;11.358;2022-12-07T00:03:34;96509.53;;;0.97;100.00
68197;BME280;55019;49.382;11.358;2022-12-07T00:06:00;96511.59;;;0.92;100.00
68197;BME280;55019;49.382;11.358;2022-12-07T00:08:26;96504.09;;;1.02;100.00
68197;BME280;55019;49.382;11.358;2022-12-07T00:10:51;96502.38;;;1.02;100.00
68197;BME280;55019;49.382;11.358;2022-12-07T00:13:17;96504.09;;;1.02;100.00
68197;BME280;55019;49.382;11.358;2022-12-07T00:15:43;96501.28;;;0.94;100.00
68197;BME280;55019;49.382;11.358;2022-12-07T00:18:08;96498.44;;;0.98;100.00
68197;BME280;55019;49.382;11.358;2022-12-07T00:20:33;96501.69;;;1.00;100.00
68197;BME280;55019;49.382;11.358;2022-12-07T00:22:59;96503.03;;;0.93;100.00
68197;BME280;55019;49.382;11.358;2022-12-07T00:25:25;96503.31;;;1.01;100.00
68197;BME280;55019;49.382;11.358;2022-12-07T00:27:52;96494.69;;;0.91;100.00
68197;BME280;55019;49.382;11.358;2022-12-07T00:30:18;96502.69;;;0.98;100.00
68197;BME280;55019;49.382;11.358;2022-12-07T00:32:44;96488.84;;;1.02;100.00
68197;BME280;55019;49.382;11.358;2022-12-07T00:35:09;96492.13;;;1.04;100.00
68197;BME280;55019;49.382;11.358;2022-12-07T00:37:35;96489.66;;;1.02;100.00
68197;BME280;55019;49.382;11.358;2022-12-07T00:40:00;96490.81;;;0.98;100.00
68197;BME280;55019;49.382;11.358;2022-12-07T00:42:25;96488.03;;;1.01;100.00
68197;BME280;55019;49.382;11.358;2022-12-07T00:44:51;96490.50;;;1.03;100.00
68197;BME280;55019;49.382;11.358;2022-12-07T00:47:16;96492.81;;;1.06;100.00
68197;BME280;55019;49.382;11.358;2022-12-07T00:49:41;96494.75;;;1.02;100.00
68197;BME280;55019;49.382;11.358;2022-12-07T00:52:07;96500.44;;;1.06;100.00
68197;BME280;55019;49.382;11.358;2022-12-07T00:54:32;96495.97;;;0.97;100.00
68197;BME280;55019;49.382;11.358;2022-12-07T00:56:58;96500.28;;;0.96;100.00
68197;BME280;55019;49.382;11.358;2022-12-07T00:59:24;96498.31;;;1.00;100.00
68197;BME280;55019;49.382;11.358;2022-12-07T01:01:49;96497.59;;;0.98;100.00
68197;BME280;55019;49.382;11.358;2022-12-07T01:04:14;96490.91;;;0.97;100.00
68197;BME280;55019;49.382;11.358;2022-12-07T01:06:40;96504.94;;;1.02;100.00
68197;BME280;55019;49.382;11.358;2022-12-07T01:09:05;96500.75;;;1.01;100.00
68197;BME280;55019;49.382;11.358;2022-12-07T01:11:31;96503.31;;;1.01;100.00
68197;BME280;55019;49.382;11.358;2022-12-07T01:13:58;96500.44;;;1.06;100.00
68197;BME280;55019;49.382;11.358;2022-12-07T01:16:26;96499.84;;;1.02;100.00
68197;BME280;55019;49.382;11.358;2022-12-07T01:18:53;96496.16;;;1.06;100.00
68197;BME280;55019;49.382;11.358;2022-12-07T01:21:22;96508.88;;;1.06;100.00
68197;BME280;55019;49.382;11.358;2022-12-07T01:23:48;96502.38;;;1.02;100.00
68197;BME280;55019;49.382;11.358;2022-12-07T01:26:16;96513.25;;;1.04;100.00
68197;BME280;55019;49.382;11.358;2022-12-07T01:28:42;96513.97;;;1.06;100.00
68197;BME280;55019;49.382;11.358;2022-12-07T01:31:10;96511.63;;;1.03;100.00
68197;BME280;55019;49.382;11.358;2022-12-07T01:33:37;96507.53;;;1.13;100.00
68197;BME280;55019;49.382;11.358;2022-12-07T01:36:12;96513.25;;;1.04;100.00
68197;BME280;55019;49.382;11.358;2022-12-07T01:38:38;96507.47;;;1.02;100.00
68197;BME280;55019;49.382;11.358;2022-12-07T01:41:03;96509.00;;;1.05;100.00
68197;BME280;55019;49.382;11.358;2022-12-07T01:43:31;96513.91;;;0.95;100.00
68197;BME280;55019;49.382;11.358;2022-12-07T01:45:56;96512.28;;;0.94;100.00
68197;BME280;55019;49.382;11.358;2022-12-07T01:48:27;96519.00;;;0.95;100.00
68197;BME280;55019;49.382;11.358;2022-12-07T01:50:56;96510.66;;;0.93;100.00
68197;BME280;55019;49.382;11.358;2022-12-07T01:53:26;96505.84;;;1.01;100.00
68197;BME280;55019;49.382;11.358;2022-12-07T01:55:55;96500.50;;;0.93;100.00
68197;BME280;55019;49.382;11.358;2022-12-07T01:58:22;96504.00;;;1.03;100.00
68197;BME280;55019;49.382;11.358;2022-12-07T02:00:47;96500.25;;;1.09;100.00
68197;BME280;55019;49.382;11.358;2022-12-07T02:03:22;96502.28;;;1.04;100.00
68197;BME280;55019;49.382;11.358;2022-12-07T02:05:50;96499.41;;;1.08;100.00
68197;BME280;55019;49.382;11.358;2022-12-07T02:08:17;96505.94;;;1.00;100.00
68197;BME280;55019;49.382;11.358;2022-12-07T02:10:43;96501.47;;;1.03;100.00
68197;BME280;55019;49.382;11.358;2022-12-07T02:13:25;96498.22;;;1.01;100.00
68197;BME280;55019;49.382;11.358;2022-12-07T02:16:44;96503.94;;;0.92;100.00
68197;BME280;55019;49.382;11.358;2022-12-07T02:21:42;96502.16;;;1.05;100.00
68197;BME280;55019;49.382;11.358;2022-12-07T02:27:13;96503.03;;;0.93;100.00
68197;BME280;55019;49.382;11.358;2022-12-07T02:29:57;96498.53;;;0.97;100.00
68197;BME280;55019;49.382;11.358;2022-12-07T02:32:40;96495.97;;;0.97;100.00
68197;BME280;55019;49.382;11.358;2022-12-07T02:35:32;96498.88;;;0.92;100.00
68197;BME280;55019;49.382;11.358;2022-12-07T02:38:08;96496.09;;;0.95;100.00
68197;BME280;55019;49.382;11.358;2022-12-07T02:40:43;96497.59;;;0.98;100.00
68197;BME280;55019;49.382;11.358;2022-12-07T02:43:31;96490.41;;;0.92;100.00
68197;BME280;55019;49.382;11.358;2022-12-07T02:46:09;96495.28;;;0.95;100.00
68197;BME280;55019;49.382;11.358;2022-12-07T02:48:38;96497.03;;;0.94;100.00
68197;BME280;55019;49.382;11.358;2022-12-07T02:51:05;96498.03;;;0.92;100.00
68197;BME280;55019;49.382;11.358;2022-12-07T02:53:39;96487.66;;;0.95;100.00
68197;BME280;55019;49.382;11.358;2022-12-07T02:56:22;96484.41;;;0.93;100.00
68197;BME280;55019;49.382;11.358;2022-12-07T03:10:03;96476.50;;;0.85;100.00
68197;BME280;55019;49.382;11.358;2022-12-07T03:12:42;96484.75;;;0.88;100.00
68197;BME280;55019;49.382;11.358;2022-12-07T03:15:22;96485.00;;;0.96;100.00
68197;BME280;55019;49.382;11.358;2022-12-07T03:17:51;96480.56;;;0.87;100.00
68197;BME280;55019;49.382;11.358;2022-12-07T03:20:21;96472.81;;;0.89;100.00
68197;BME280;55019;49.382;11.358;2022-12-07T03:22:49;96483.16;;;0.98;100.00
68197;BME280;55019;49.382;11.358;2022-12-07T03:25:17;96475.91;;;0.81;100.00
68197;BME280;55019;49.382;11.358;2022-12-07T03:33:04;96468.28;;;0.81;100.00
68197;BME280;55019;49.382;11.358;2022-12-07T03:36:00;96468.59;;;0.77;100.00
68197;BME280;55019;49.382;11.358;2022-12-07T03:38:52;96470.03;;;0.68;100.00
68197;BME280;55019;49.382;11.358;2022-12-07T03:41:25;96465.66;;;0.70;100.00
68197;BME280;55019;49.382;11.358;2022-12-07T03:43:53;96451.53;;;0.66;100.00
68197;BME280;55019;49.382;11.358;2022-12-07T03:46:36;96450.41;;;0.70;100.00
68197;BME280;55019;49.382;11.358;2022-12-07T03:54:45;96448.63;;;0.60;100.00
68197;BME280;55019;49.382;11.358;2022-12-07T03:57:13;96451.47;;;0.43;100.00
68197;BME280;55019;49.382;11.358;2022-12-07T03:59:39;96446.59;;;0.52;100.00
68197;BME280;55019;49.382;11.358;2022-12-07T04:02:07;96447.47;;;0.64;100.00
68197;BME280;55019;49.382;11.358;2022-12-07T04:04:33;96440.38;;;0.56;100.00
68197;BME280;55019;49.382;11.358;2022-12-07T04:06:59;96443.38;;;0.38;100.00
68197;BME280;55019;49.382;11.358;2022-12-07T04:09:25;96445.88;;;0.50;100.00
68197;BME280;55019;49.382;11.358;2022-12-07T04:11:50;96430.63;;;0.50;100.00
68197;BME280;55019;49.382;11.358;2022-12-07T04:14:16;96435.22;;;0.45;100.00
68197;BME280;55019;49.382;11.358;2022-12-07T04:16:48;96438.25;;;0.50;100.00
68197;BME280;55019;49.382;11.358;2022-12-07T04:19:14;96441.81;;;0.48;100.00
68197;BME280;55019;49.382;11.358;2022-12-07T04:21:40;96427.03;;;0.29;100.00
68197;BME280;55019;49.382;11.358;2022-12-07T04:24:06;96417.66;;;0.30;100.00
68197;BME280;55019;49.382;11.358;2022-12-07T04:26:32;96423.59;;;0.18;100.00
68197;BME280;55019;49.382;11.358;2022-12-07T04:28:58;96417.09;;;0.14;100.00
68197;BME280;55019;49.382;11.358;2022-12-07T04:31:23;96422.88;;;0.28;100.00
68197;BME280;55019;49.382;11.358;2022-12-07T04:33:48;96421.97;;;0.04;100.00
68197;BME280;55019;49.382;11.358;2022-12-07T04:36:14;96414.56;;;0.01;100.00
68197;BME280;55019;49.382;11.358;2022-12-07T04:38:39;96424.53;;;0.04;100.00
68197;BME280;55019;49.382;11.358;2022-12-07T04:41:09;96422.41;;;-0.14;100.00
68197;BME280;55019;49.382;11.358;2022-12-07T04:43:35;96415.09;;;-0.18;100.00
68197;BME280;55019;49.382;11.358;2022-12-07T04:46:01;96419.97;;;-0.15;100.00
68197;BME280;55019;49.382;11.358;2022-12-07T04:48:26;96412.56;;;-0.18;100.00
68197;BME280;55019;49.382;11.358;2022-12-07T04:50:52;96430.31;;;-0.31;100.00
68197;BME280;55019;49.382;11.358;2022-12-07T04:53:17;96433.88;;;-0.33;100.00
68197;BME280;55019;49.382;11.358;2022-12-07T04:55:44;96431.13;;;-0.30;100.00
68197;BME280;55019;49.382;11.358;2022-12-07T04:58:12;96430.41;;;-0.32;100.00
68197;BME280;55019;49.382;11.358;2022-12-07T05:00:38;96438.03;;;-0.32;100.00
68197;BME280;55019;49.382;11.358;2022-12-07T05:03:03;96431.75;;;-0.27;100.00
68197;BME280;55019;49.382;11.358;2022-12-07T05:05:29;96439.38;;;-0.14;100.00
68197;BME280;55019;49.382;11.358;2022-12-07T05:07:54;96448.19;;;-0.07;100.00
68197;BME280;55019;49.382;11.358;2022-12-07T05:10:20;96451.56;;;-0.19;100.00
68197;BME280;55019;49.382;11.358;2022-12-07T05:12:45;96456.44;;;-0.16;100.00
68197;BME280;55019;49.382;11.358;2022-12-07T05:15:12;96463.22;;;-0.17;100.00
68197;BME280;55019;49.382;11.358;2022-12-07T05:17:37;96464.34;;;-0.08;100.00
68197;BME280;55019;49.382;11.358;2022-12-07T05:20:05;96459.78;;;-0.03;100.00
68197;BME280;55019;49.382;11.358;2022-12-07T05:22:31;96456.53;;;-0.05;100.00
68197;BME280;55019;49.382;11.358;2022-12-07T05:24:56;96456.75;;;-0.08;100.00
68197;BME280;55019;49.382;11.358;2022-12-07T05:27:22;96460.69;;;-0.04;100.00
68197;BME280;55019;49.382;11.358;2022-12-07T05:29:49;96452.56;;;-0.09;100.00
68197;BME280;55019;49.382;11.358;2022-12-07T05:32:15;96452.97;;;-0.03;100.00
68197;BME280;55019;49.382;11.358;2022-12-07T05:34:40;96454.19;;;-0.08;100.00
68197;BME280;55019;49.382;11.358;2022-12-07T05:37:06;96457.94;;;-0.02;100.00
68197;BME280;55019;49.382;11.358;2022-12-07T05:39:31;96453.88;;;-0.04;100.00
68197;BME280;55019;49.382;11.358;2022-12-07T05:41:56;96449.22;;;-0.10;100.00
68197;BME280;55019;49.382;11.358;2022-12-07T05:44:37;96453.28;;;-0.07;100.00
68197;BME280;55019;49.382;11.358;2022-12-07T05:47:03;96457.75;;;0.01;100.00
68197;BME280;55019;49.382;11.358;2022-12-07T05:49:28;96456.41;;;-0.04;100.00
68197;BME280;55019;49.382;11.358;2022-12-07T05:51:54;96455.00;;;-0.08;100.00
68197;BME280;55019;49.382;11.358;2022-12-07T05:54:19;96455.31;;;-0.12;100.00
68197;BME280;55019;49.382;11.358;2022-12-07T05:56:45;96461.00;;;-0.09;100.00
68197;BME280;55019;49.382;11.358;2022-12-07T05:59:10;96461.00;;;-0.09;100.00
68197;BME280;55019;49.382;11.358;2022-12-07T06:02:14;96453.59;;;0.00;100.00
68197;BME280;55019;49.382;11.358;2022-12-07T06:04:45;96450.63;;;0.06;100.00
68197;BME280;55019;49.382;11.358;2022-12-07T06:07:13;96454.28;;;0.02;100.00
68197;BME280;55019;49.382;11.358;2022-12-07T06:09:38;96458.88;;;-0.03;100.00
68197;BME280;55019;49.382;11.358;2022-12-07T06:12:04;96455.72;;;-0.06;100.00
68197;BME280;55019;49.382;11.358;2022-12-07T06:14:49;96449.81;;;-0.06;100.00
68197;BME280;55019;49.382;11.358;2022-12-07T06:17:14;96457.31;;;-0.05;100.00
68197;BME280;55019;49.382;11.358;2022-12-07T06:19:40;96450.63;;;-0.06;100.00
68197;BME280;55019;49.382;11.358;2022-12-07T06:22:06;96450.25;;;-0.12;100.00
68197;BME280;55019;49.382;11.358;2022-12-07T06:24:32;96450.63;;;-0.06;100.00
68197;BME280;55019;49.382;11.358;2022-12-07T06:26:58;96459.16;;;0.05;100.00
68197;BME280;55019;49.382;11.358;2022-12-07T06:29:24;96452.25;;;-0.05;100.00
68197;BME280;55019;49.382;11.358;2022-12-07T06:31:49;96448.28;;;-0.09;100.00
68197;BME280;55019;49.382;11.358;2022-12-07T06:34:17;96455.13;;;-0.09;100.00
68197;BME280;55019;49.382;11.358;2022-12-07T06:36:42;96458.78;;;-0.13;100.00
68197;BME280;55019;49.382;11.358;2022-12-07T06:39:08;96460.50;;;-0.02;100.00
68197;BME280;55019;49.382;11.358;2022-12-07T06:41:35;96462.41;;;-0.05;100.00
68197;BME280;55019;49.382;11.358;2022-12-07T06:44:02;96454.28;;;-0.10;100.00
68197;BME280;55019;49.382;11.358;2022-12-07T06:46:27;96458.84;;;-0.15;100.00
68197;BME280;55019;49.382;11.358;2022-12-07T06:48:53;96463.53;;;-0.21;100.00
68197;BME280;55019;49.382;11.358;2022-12-07T06:51:18;96457.22;;;-0.16;100.00
68197;BME280;55019;49.382;11.358;2022-12-07T06:53:44;96459.16;;;-0.07;100.00
68197;BME280;55019;49.382;11.358;2022-12-07T06:56:09;96466.69;;;-0.05;100.00
68197;BME280;55019;49.382;11.358;2022-12-07T06:58:35;96464.88;;;-0.03;100.00
68197;BME280;55019;49.382;11.358;2022-12-07T07:01:00;96454.69;;;-0.03;100.00
68197;BME280;55019;49.382;11.358;2022-12-07T07:03:26;96454.09;;;0.05;100.00
68197;BME280;55019;49.382;11.358;2022-12-07T07:05:51;96460.50;;;-0.02;100.00
68197;BME280;55019;49.382;11.358;2022-12-07T07:08:17;96456.41;;;-0.04;100.00
68197;BME280;55019;49.382;11.358;2022-12-07T07:10:42;96464.03;;;-0.04;100.00
68197;BME280;55019;49.382;11.358;2022-12-07T07:13:08;96464.94;;;-0.05;100.00
68197;BME280;55019;49.382;11.358;2022-12-07T07:15:34;96468.91;;;-0.01;100.00
68197;BME280;55019;49.382;11.358;2022-12-07T07:18:00;96475.31;;;-0.08;100.00
68197;BME280;55019;49.382;11.358;2022-12-07T07:20:25;96468.91;;;-0.01;100.00
68197;BME280;55019;49.382;11.358;2022-12-07T07:22:54;96469.53;;;0.02;100.00
68197;BME280;55019;49.382;11.358;2022-12-07T07:25:19;96471.97;;;0.04;100.00
68197;BME280;55019;49.382;11.358;2022-12-07T07:27:45;96469.81;;;-0.02;100.00
68197;BME280;55019;49.382;11.358;2022-12-07T07:30:10;96467.06;;;0.13;100.00
68197;BME280;55019;49.382;11.358;2022-12-07T07:32:36;96467.41;;;0.09;100.00
68197;BME280;55019;49.382;11.358;2022-12-07T07:35:02;96474.41;;;0.18;100.00
68197;BME280;55019;49.382;11.358;2022-12-07T07:37:27;96474.41;;;0.18;100.00
68197;BME280;55019;49.382;11.358;2022-12-07T07:39:52;96479.69;;;0.15;100.00
68197;BME280;55019;49.382;11.358;2022-12-07T07:42:18;96483.03;;;0.15;100.00
68197;BME280;55019;49.382;11.358;2022-12-07T07:44:43;96471.31;;;0.25;100.00
68197;BME280;55019;49.382;11.358;2022-12-07T07:47:09;96475.03;;;0.09;100.00
68197;BME280;55019;49.382;11.358;2022-12-07T07:49:34;96472.06;;;0.15;100.00
68197;BME280;55019;49.382;11.358;2022-12-07T07:52:00;96472.25;;;0.24;100.00
68197;BME280;55019;49.382;11.358;2022-12-07T07:54:25;96473.38;;;0.20;100.00
68197;BME280;55019;49.382;11.358;2022-12-07T07:56:52;96463.00;;;0.23;100.00
68197;BME280;55019;49.382;11.358;2022-12-07T07:59:17;96474.78;;;0.24;99.85
68197;BME280;55019;49.382;11.358;2022-12-07T08:01:43;96478.44;;;0.20;100.00
68197;BME280;55019;49.382;11.358;2022-12-07T08:04:08;96493.19;;;0.28;100.00
68197;BME280;55019;49.382;11.358;2022-12-07T08:06:34;96477.44;;;0.35;100.00
68197;BME280;55019;49.382;11.358;2022-12-07T08:08:59;96483.94;;;0.39;99.83
68197;BME280;55019;49.382;11.358;2022-12-07T08:11:25;96489.94;;;0.38;99.99
68197;BME280;55019;49.382;11.358;2022-12-07T08:13:50;96479.06;;;0.36;100.00
68197;BME280;55019;49.382;11.358;2022-12-07T08:16:16;96482.91;;;0.42;99.96
68197;BME280;55019;49.382;11.358;2022-12-07T08:18:42;96490.34;;;0.32;100.00
68197;BME280;55019;49.382;11.358;2022-12-07T08:21:10;96484.16;;;0.36;100.00
68197;BME280;55019;49.382;11.358;2022-12-07T08:23:36;96480.56;;;0.39;100.00
68197;BME280;55019;49.382;11.358;2022-12-07T08:26:04;96493.06;;;0.42;100.00
68197;BME280;55019;49.382;11.358;2022-12-07T08:28:30;96489.41;;;0.46;100.00
68197;BME280;55019;49.382;11.358;2022-12-07T08:31:04;96482.81;;;0.43;100.00
68197;BME280;55019;49.382;11.358;2022-12-07T08:33:30;96485.63;;;0.51;100.00
68197;BME280;55019;49.382;11.358;2022-12-07T08:36:00;96494.47;;;0.58;100.00
68197;BME280;55019;49.382;11.358;2022-12-07T08:38:26;96491.72;;;0.61;100.00
68197;BME280;55019;49.382;11.358;2022-12-07T08:40:55;96490.59;;;0.65;99.63
68197;BME280;55019;49.382;11.358;2022-12-07T08:43:21;96487.75;;;0.70;99.54
68197;BME280;55019;49.382;11.358;2022-12-07T08:45:49;96492.91;;;0.68;99.60
68197;BME280;55019;49.382;11.358;2022-12-07T08:48:18;96487.94;;;0.67;99.89
68197;BME280;55019;49.382;11.358;2022-12-07T08:50:47;96487.53;;;0.73;99.97
68197;BME280;55019;49.382;11.358;2022-12-07T08:53:13;96479.41;;;0.68;99.35
68197;BME280;55019;49.382;11.358;2022-12-07T08:55:39;96479.78;;;0.74;99.63
68197;BME280;55019;49.382;11.358;2022-12-07T08:58:05;96480.91;;;0.70;99.44
68197;BME280;55019;49.382;11.358;2022-12-07T09:00:30;96482.84;;;0.79;99.85
68197;BME280;55019;49.382;11.358;2022-12-07T09:02:56;96476.28;;;0.88;99.46
68197;BME280;55019;49.382;11.358;2022-12-07T09:05:21;96483.53;;;0.81;99.35
68197;BME280;55019;49.382;11.358;2022-12-07T09:07:51;96483.59;;;0.92;99.96
68197;BME280;55019;49.382;11.358;2022-12-07T09:10:19;96478.19;;;0.97;99.46
68197;BME280;55019;49.382;11.358;2022-12-07T09:12:44;96483.56;;;1.05;99.21
68197;BME280;55019;49.382;11.358;2022-12-07T09:15:10;96480.13;;;0.93;98.77
68197;BME280;55019;49.382;11.358;2022-12-07T09:17:35;96491.50;;;1.00;98.56
68197;BME280;55019;49.382;11.358;2022-12-07T09:20:02;96486.94;;;0.93;98.25
68197;BME280;55019;49.382;11.358;2022-12-07T09:22:29;96491.66;;;0.86;99.10
68197;BME280;55019;49.382;11.358;2022-12-07T09:24:56;96490.03;;;0.85;100.00
68197;BME280;55019;49.382;11.358;2022-12-07T09:27:21;96497.06;;;0.82;99.79
68197;BME280;55019;49.382;11.358;2022-12-07T09:29:47;96495.22;;;0.84;99.86
68197;BME280;55019;49.382;11.358;2022-12-07T09:32:12;96490.41;;;0.92;100.00
68197;BME280;55019;49.382;11.358;2022-12-07T09:34:38;96492.72;;;0.95;99.75
68197;BME280;55019;49.382;11.358;2022-12-07T09:37:06;96490.53;;;0.90;99.59
68197;BME280;55019;49.382;11.358;2022-12-07T09:39:32;96498.53;;;0.97;99.80
68197;BME280;55019;49.382;11.358;2022-12-07T09:41:57;96499.34;;;0.97;99.14
68197;BME280;55019;49.382;11.358;2022-12-07T09:44:25;96491.28;;;1.03;98.48
68197;BME280;55019;49.382;11.358;2022-12-07T09:46:52;96492.22;;;1.02;99.17
68197;BME280;55019;49.382;11.358;2022-12-07T09:49:20;96494.97;;;0.99;99.65
68197;BME280;55019;49.382;11.358;2022-12-07T09:51:48;96484.75;;;0.88;100.00
68197;BME280;55019;49.382;11.358;2022-12-07T09:54:24;96481.84;;;0.93;100.00
68197;BME280;55019;49.382;11.358;2022-12-07T09:56:49;96478.09;;;0.98;100.00
68197;BME280;55019;49.382;11.358;2022-12-07T09:59:18;96477.53;;;0.82;100.00
68197;BME280;55019;49.382;11.358;2022-12-07T10:01:46;96479.81;;;0.98;100.00
68197;BME280;55019;49.382;11.358;2022-12-07T10:04:21;96477.25;;;0.98;100.00
68197;BME280;55019;49.382;11.358;2022-12-07T10:06:47;96481.31;;;1.00;100.00
68197;BME280;55019;49.382;11.358;2022-12-07T10:09:15;96470.94;;;1.03;100.00
68197;BME280;55019;49.382;11.358;2022-12-07T10:14:33;96473.25;;;1.06;100.00
68197;BME280;55019;49.382;11.358;2022-12-07T10:17:00;96465.63;;;1.06;100.00
68197;BME280;55019;49.382;11.358;2022-12-07T10:19:28;96464.28;;;1.13;100.00
68197;BME280;55019;49.382;11.358;2022-12-07T10:22:12;96461.72;;;1.13;100.00
68197;BME280;55019;49.382;11.358;2022-12-07T10:24:40;96455.84;;;1.13;100.00
68197;BME280;55019;49.382;11.358;2022-12-07T10:27:21;96456.63;;;1.13;100.00
68197;BME280;55019;49.382;11.358;2022-12-07T10:29:50;96451.09;;;1.19;100.00
68197;BME280;55019;49.382;11.358;2022-12-07T10:34:42;96454.34;;;1.21;100.00
68197;BME280;55019;49.382;11.358;2022-12-07T10:39:48;96453.56;;;1.21;100.00
68197;BME280;55019;49.382;11.358;2022-12-07T10:42:19;96439.09;;;1.21;100.00
68197;BME280;55019;49.382;11.358;2022-12-07T10:44:46;96445.78;;;1.22;100.00
68197;BME280;55019;49.382;11.358;2022-12-07T10:47:29;96443.53;;;1.30;100.00
68197;BME280;55019;49.382;11.358;2022-12-07T11:03:46;96419.72;;;1.31;100.00
68197;BME280;55019;49.382;11.358;2022-12-07T11:06:20;96425.06;;;1.39;100.00
68197;BME280;55019;49.382;11.358;2022-12-07T11:09:16;96423.91;;;1.43;100.00
68197;BME280;55019;49.382;11.358;2022-12-07T11:22:29;96419.28;;;1.48;100.00
68197;BME280;55019;49.382;11.358;2022-12-07T11:28:14;96409.81;;;1.50;100.00
68197;BME280;55019;49.382;11.358;2022-12-07T11:31:13;96404.25;;;1.45;100.00
68197;BME280;55019;49.382;11.358;2022-12-07T11:36:47;96406.81;;;1.56;100.00
68197;BME280;55019;49.382;11.358;2022-12-07T11:42:00;96407.88;;;1.64;100.00
68197;BME280;55019;49.382;11.358;2022-12-07T11:47:30;96395.59;;;1.69;100.00
68197;BME280;55019;49.382;11.358;2022-12-07T11:55:23;96393.75;;;1.93;100.00
68197;BME280;55019;49.382;11.358;2022-12-07T11:57:58;96391.13;;;1.95;99.60
68197;BME280;55019;49.382;11.358;2022-12-07T12:00:27;96382.78;;;1.93;99.27
68197;BME280;55019;49.382;11.358;2022-12-07T12:03:01;96383.00;;;1.90;99.55
68197;BME280;55019;49.382;11.358;2022-12-07T12:05:29;96383.47;;;1.95;99.41
68197;BME280;55019;49.382;11.358;2022-12-07T12:08:23;96381.16;;;1.92;99.05
68197;BME280;55019;49.382;11.358;2022-12-07T12:11:05;96380.22;;;1.82;99.34
68197;BME280;55019;49.382;11.358;2022-12-07T12:22:54;96378.72;;;1.90;99.18
68197;BME280;55019;49.382;11.358;2022-12-07T12:25:24;96375.22;;;1.91;99.70
68197;BME280;55019;49.382;11.358;2022-12-07T12:27:52;96371.28;;;1.98;99.86
68197;BME280;55019;49.382;11.358;2022-12-07T12:30:38;96367.81;;;1.99;99.78
68197;BME280;55019;49.382;11.358;2022-12-07T12:33:20;96375.47;;;2.10;98.90
68197;BME280;55019;49.382;11.358;2022-12-07T12:39:11;96370.72;;;1.95;98.99
68197;BME280;55019;49.382;11.358;2022-12-07T12:41:55;96369.34;;;2.02;98.72
68197;BME280;55019;49.382;11.358;2022-12-07T12:44:41;96358.44;;;2.00;98.80
68197;BME280;55019;49.382;11.358;2022-12-07T13:01:36;96348.94;;;2.02;99.21
68197;BME280;55019;49.382;11.358;2022-12-07T13:04:18;96346.63;;;1.99;99.33
68197;BME280;55019;49.382;11.358;2022-12-07T13:06:46;96356.13;;;1.97;99.93
68197;BME280;55019;49.382;11.358;2022-12-07T13:09:27;96354.16;;;2.11;98.87
68197;BME280;55019;49.382;11.358;2022-12-07T13:12:01;96347.91;;;1.93;98.77
68197;BME280;55019;49.382;11.358;2022-12-07T13:14:52;96353.13;;;2.03;99.13
68197;BME280;55019;49.382;11.358;2022-12-07T13:19:57;96348.50;;;1.97;99.02
68197;BME280;55019;49.382;11.358;2022-12-07T13:25:30;96336.44;;;1.99;98.82
68197;BME280;55019;49.382;11.358;2022-12-07T13:28:02;96332.50;;;1.95;98.53
68197;BME280;55019;49.382;11.358;2022-12-07T13:30:29;96335.06;;;1.95;99.44
68197;BME280;55019;49.382;11.358;2022-12-07T13:32:58;96332.06;;;1.90;98.97
68197;BME280;55019;49.382;11.358;2022-12-07T13:35:37;96343.03;;;1.90;98.57
68197;BME280;55019;49.382;11.358;2022-12-07T13:38:13;96336.31;;;1.89;98.46
68197;BME280;55019;49.382;11.358;2022-12-07T13:40:40;96334.38;;;1.82;99.39
68197;BME280;55019;49.382;11.358;2022-12-07T13:43:13;96339.00;;;1.88;98.75
68197;BME280;55019;49.382;11.358;2022-12-07T13:45:41;96341.41;;;1.89;98.60
68197;BME280;55019;49.382;11.358;2022-12-07T13:48:22;96342.25;;;1.90;99.15
68197;BME280;55019;49.382;11.358;2022-12-07T13:50:54;96345.72;;;1.89;99.76
68197;BME280;55019;49.382;11.358;2022-12-07T13:53:21;96339.81;;;1.88;99.18
68197;BME280;55019;49.382;11.358;2022-12-07T13:55:47;96338.09;;;1.89;99.70
68197;BME280;55019;49.382;11.358;2022-12-07T13:58:13;96338.53;;;1.94;99.49
68197;BME280;55019;49.382;11.358;2022-12-07T14:00:40;96337.94;;;1.90;98.46
68197;BME280;55019;49.382;11.358;2022-12-07T14:05:38;96338.19;;;1.87;99.55
68197;BME280;55019;49.382;11.358;2022-12-07T14:08:20;96344.56;;;1.82;99.79
68197;BME280;55019;49.382;11.358;2022-12-07T14:13:35;96343.63;;;1.72;99.90
68197;BME280;55019;49.382;11.358;2022-12-07T14:18:49;96354.16;;;1.78;100.00
68197;BME280;55019;49.382;11.358;2022-12-07T14:21:26;96352.19;;;1.71;100.00
68197;BME280;55019;49.382;11.358;2022-12-07T14:26:37;96356.00;;;1.65;100.00
68197;BME280;55019;49.382;11.358;2022-12-07T14:31:52;96348.72;;;1.61;100.00
68197;BME280;55019;49.382;11.358;2022-12-07T14:34:20;96353.94;;;1.70;100.00
68197;BME280;55019;49.382;11.358;2022-12-07T14:36:46;96346.84;;;1.63;100.00
68197;BME280;55019;49.382;11.358;2022-12-07T14:39:11;96345.69;;;1.67;100.00
68197;BME280;55019;49.382;11.358;2022-12-07T14:41:36;96344.06;;;1.66;100.00
68197;BME280;55019;49.382;11.358;2022-12-07T14:44:22;96336.22;;;1.69;100.00
68197;BME280;55019;49.382;11.358;2022-12-07T14:46:48;96334.59;;;1.57;100.00
68197;BME280;55019;49.382;11.358;2022-12-07T14:49:15;96338.28;;;1.53;100.00
68197;BME280;55019;49.382;11.358;2022-12-07T14:51:41;96330.31;;;1.57;100.00
68197;BME280;55019;49.382;11.358;2022-12-07T14:54:14;96331.81;;;1.49;100.00
68197;BME280;55019;49.382;11.358;2022-12-07T14:56:40;96331.22;;;1.45;100.00
68197;BME280;55019;49.382;11.358;2022-12-07T14:59:07;96329.72;;;1.43;100.00
68197;BME280;55019;49.382;11.358;2022-12-07T15:01:32;96333.41;;;1.28;100.00
68197;BME280;55019;49.382;11.358;2022-12-07T15:03:58;96328.88;;;1.32;100.00